32.9°F
Current conditions from King Hill
Updated every 5 minutes
 
  Thursday April 24, 2014

Station Historical Data
Daily Summary for August 07, 2012 Units:  English    Metric   Both
« Previous Day
Next Day »
Daily Weekly Monthly Yearly Custom
  High: Low: Average:
Temperature: 83.0 °F 52.1 °F 67.2 °F
Dew Point: 61.5 °F 50.7 °F 56 °F
Humidity: 96% 42% 71%
Wind Speed: 7.0mph 0.0mph 1.8mph
Wind Gust: 13.0mph - -
Wind- - SW
Pressure: 29.96 in 29.86 in -
Precipitation: 0.01 in    
Historical Graphs
 
 
Tabular Data for August 07, 2012
Time Temperature Dew Point Pressure Wind Wind Speed Wind Gust Humidity Daily Rainfall
00:04 53.7 °F 51.4 °F 29.95 in Calm     92% 0.00 in
00:10 53.6 °F 51.3 °F 29.95 in Calm     92% 0.00 in
00:14 53.6 °F 51.3 °F 29.95 in Calm     92% 0.00 in
00:20 53.5 °F 51.2 °F 29.95 in Calm     92% 0.00 in
00:29 53.4 °F 51.1 °F 29.95 in Calm     92% 0.00 in
00:34 53.3 °F 51.0 °F 29.95 in Calm     92% 0.00 in
00:39 53.3 °F 51.3 °F 29.95 in Calm     93% 0.00 in
00:44 53.2 °F 51.2 °F 29.95 in Calm     93% 0.00 in
00:49 53.3 °F 51.3 °F 29.95 in Calm     93% 0.00 in
00:54 53.5 °F 51.5 °F 29.95 in Calm     93% 0.00 in
00:59 53.5 °F 51.5 °F 29.95 in Calm     93% 0.00 in
01:04 53.4 °F 51.7 °F 29.96 in Calm     94% 0.00 in
01:09 53.4 °F 51.7 °F 29.96 in Calm     94% 0.00 in
01:14 53.5 °F 51.8 °F 29.96 in Calm     94% 0.00 in
01:19 53.5 °F 51.8 °F 29.96 in Calm     94% 0.00 in
01:24 53.5 °F 51.8 °F 29.96 in Calm     94% 0.00 in
01:29 53.4 °F 51.7 °F 29.96 in Calm     94% 0.00 in
01:34 53.4 °F 51.7 °F 29.95 in Calm     94% 0.00 in
01:39 53.3 °F 51.6 °F 29.95 in Calm     94% 0.00 in
01:44 53.3 °F 51.6 °F 29.95 in Calm     94% 0.00 in
01:49 53.2 °F 51.5 °F 29.95 in Calm     94% 0.00 in
01:54 53.2 °F 51.5 °F 29.95 in Calm     94% 0.00 in
01:59 53.0 °F 51.3 °F 29.95 in Calm     94% 0.00 in
02:04 52.9 °F 51.2 °F 29.95 in Calm     94% 0.00 in
02:09 52.8 °F 51.1 °F 29.95 in Calm     94% 0.00 in
02:14 52.9 °F 51.2 °F 29.95 in Calm     94% 0.00 in
02:19 52.8 °F 51.1 °F 29.95 in Calm     94% 0.00 in
02:24 52.8 °F 51.1 °F 29.95 in Calm     94% 0.00 in
02:29 52.7 °F 51.0 °F 29.95 in Calm     94% 0.00 in
02:34 52.7 °F 51.0 °F 29.95 in Calm     94% 0.00 in
02:39 52.8 °F 51.1 °F 29.94 in Calm     94% 0.00 in
02:44 52.7 °F 51.0 °F 29.95 in Calm     94% 0.00 in
02:49 52.7 °F 51.3 °F 29.95 in Calm     95% 0.00 in
02:54 52.7 °F 51.3 °F 29.95 in Calm     95% 0.00 in
02:59 52.6 °F 51.2 °F 29.95 in Calm     95% 0.00 in
03:04 52.7 °F 51.3 °F 29.95 in Calm     95% 0.00 in
03:09 52.6 °F 51.2 °F 29.95 in Calm     95% 0.00 in
03:14 52.7 °F 51.3 °F 29.95 in Calm     95% 0.00 in
03:19 52.7 °F 51.3 °F 29.94 in Calm     95% 0.00 in
03:24 52.8 °F 51.4 °F 29.94 in Calm     95% 0.00 in
03:29 52.6 °F 51.2 °F 29.94 in Calm     95% 0.00 in
03:34 52.4 °F 51.0 °F 29.94 in Calm     95% 0.00 in
03:39 52.6 °F 51.2 °F 29.94 in Calm     95% 0.00 in
03:44 52.7 °F 51.3 °F 29.94 in Calm     95% 0.00 in
03:49 52.7 °F 51.3 °F 29.94 in Calm     95% 0.00 in
03:54 52.5 °F 51.1 °F 29.94 in Calm     95% 0.00 in
03:59 52.6 °F 51.2 °F 29.94 in Calm     95% 0.00 in
04:04 52.8 °F 51.4 °F 29.94 in Calm     95% 0.00 in
04:09 52.7 °F 51.3 °F 29.94 in Calm     95% 0.00 in
04:14 52.6 °F 51.2 °F 29.94 in Calm     95% 0.00 in
04:19 52.7 °F 51.3 °F 29.94 in Calm     95% 0.00 in
04:24 52.6 °F 51.2 °F 29.93 in Calm     95% 0.00 in
04:29 52.4 °F 51.0 °F 29.94 in Calm     95% 0.00 in
04:34 52.3 °F 50.9 °F 29.93 in Calm     95% 0.00 in
04:39 52.2 °F 50.8 °F 29.94 in Calm     95% 0.00 in
04:44 52.1 °F 50.7 °F 29.94 in Calm     95% 0.00 in
04:49 52.2 °F 50.8 °F 29.94 in Calm     95% 0.00 in
04:54 52.7 °F 51.3 °F 29.94 in Calm   2.0 mph 95% 0.00 in
04:59 53.0 °F 51.9 °F 29.94 in Calm   2.0 mph 96% 0.00 in
05:04 53.3 °F 51.9 °F 29.94 in Calm   2.0 mph 95% 0.00 in
05:09 53.5 °F 52.4 °F 29.94 in Calm   2.0 mph 96% 0.00 in
05:14 53.7 °F 52.6 °F 29.94 in Calm   2.0 mph 96% 0.00 in
05:19 53.9 °F 52.8 °F 29.94 in Calm   3.0 mph 96% 0.00 in
05:24 54.1 °F 53.0 °F 29.94 in Calm   3.0 mph 96% 0.00 in
05:29 54.3 °F 53.2 °F 29.94 in Calm   3.0 mph 96% 0.00 in
05:34 54.3 °F 53.2 °F 29.94 in Calm   3.0 mph 96% 0.00 in
05:39 54.5 °F 53.4 °F 29.94 in SSW 1.0 mph 5.0 mph 96% 0.00 in
05:44 54.5 °F 53.4 °F 29.94 in Calm   5.0 mph 96% 0.00 in
05:49 54.4 °F 53.0 °F 29.94 in Calm   2.0 mph 95% 0.00 in
05:54 54.4 °F 53.0 °F 29.94 in Calm   2.0 mph 95% 0.01 in
05:59 54.3 °F 52.9 °F 29.94 in Calm   4.0 mph 95% 0.01 in
06:04 54.3 °F 52.9 °F 29.94 in Calm   4.0 mph 95% 0.01 in
06:09 54.5 °F 53.1 °F 29.94 in SSW 1.0 mph 4.0 mph 95% 0.01 in
06:14 54.5 °F 53.1 °F 29.94 in Calm   4.0 mph 95% 0.01 in
06:19 54.6 °F 53.5 °F 29.95 in SSW 1.0 mph 3.0 mph 96% 0.01 in
06:24 54.7 °F 53.6 °F 29.95 in Calm   3.0 mph 96% 0.01 in
06:29 54.7 °F 53.6 °F 29.95 in Calm   2.0 mph 96% 0.01 in
06:34 54.7 °F 53.6 °F 29.95 in SSW 1.0 mph 4.0 mph 96% 0.01 in
06:39 54.9 °F 53.5 °F 29.95 in Calm   4.0 mph 95% 0.01 in
06:44 54.9 °F 53.5 °F 29.95 in Calm   2.0 mph 95% 0.01 in
06:49 55.1 °F 53.7 °F 29.95 in Calm     95% 0.01 in
06:54 55.3 °F 54.2 °F 29.95 in SSW 1.0 mph 5.0 mph 96% 0.01 in
06:59 55.5 °F 54.4 °F 29.95 in Calm   5.0 mph 96% 0.01 in
07:04 55.8 °F 54.4 °F 29.95 in SW 1.0 mph 5.0 mph 95% 0.01 in
07:09 56.1 °F 55.0 °F 29.95 in SSW 1.0 mph 5.0 mph 96% 0.01 in
07:14 56.6 °F 55.5 °F 29.95 in SSW 2.0 mph 6.0 mph 96% 0.01 in
07:19 57.1 °F 55.7 °F 29.95 in SSW 1.0 mph 7.0 mph 95% 0.01 in
07:24 57.5 °F 56.1 °F 29.96 in Calm   7.0 mph 95% 0.01 in
07:29 58.0 °F 56.6 °F 29.96 in SW 1.0 mph 6.0 mph 95% 0.01 in
07:34 58.5 °F 57.1 °F 29.96 in SW 2.0 mph 6.0 mph 95% 0.01 in
07:39 59.0 °F 57.6 °F 29.96 in SW 2.0 mph 6.0 mph 95% 0.01 in
07:44 59.4 °F 57.4 °F 29.96 in SW 1.0 mph 7.0 mph 93% 0.01 in
07:49 60.2 °F 58.2 °F 29.96 in Calm   7.0 mph 93% 0.01 in
07:54 60.9 °F 58.3 °F 29.96 in SW 1.0 mph 5.0 mph 91% 0.01 in
07:59 61.5 °F 58.2 °F 29.96 in SSW 1.0 mph 6.0 mph 89% 0.01 in
08:04 62.1 °F 58.2 °F 29.96 in Calm   9.0 mph 87% 0.01 in
08:09 62.8 °F 58.2 °F 29.96 in SSW 1.0 mph 9.0 mph 85% 0.01 in
08:14 63.5 °F 58.2 °F 29.96 in Calm   7.0 mph 83% 0.01 in
08:19 64.2 °F 58.6 °F 29.96 in SSW 1.0 mph 7.0 mph 82% 0.01 in
08:24 64.8 °F 58.5 °F 29.96 in Calm   7.0 mph 80% 0.01 in
08:29 65.4 °F 59.1 °F 29.96 in WSW 1.0 mph 10.0 mph 80% 0.01 in
08:34 66.1 °F 59.4 °F 29.96 in Calm   10.0 mph 79% 0.01 in
08:39 66.5 °F 58.7 °F 29.96 in SW 1.0 mph 7.0 mph 76% 0.01 in
08:44 66.9 °F 59.8 °F 29.96 in Calm   7.0 mph 78% 0.01 in
08:49 67.1 °F 58.9 °F 29.96 in SSW 1.0 mph 8.0 mph 75% 0.01 in
08:54 67.2 °F 59.0 °F 29.96 in Calm   9.0 mph 75% 0.01 in
08:59 67.5 °F 58.9 °F 29.96 in SW 1.0 mph 10.0 mph 74% 0.01 in
09:04 68.0 °F 59.4 °F 29.96 in SSW 1.0 mph 10.0 mph 74% 0.01 in
09:09 68.4 °F 59.8 °F 29.96 in Calm   7.0 mph 74% 0.01 in
09:14 68.8 °F 59.4 °F 29.96 in SSW 1.0 mph 7.0 mph 72% 0.01 in
09:19 69.0 °F 59.6 °F 29.96 in SSW 3.0 mph 9.0 mph 72% 0.01 in
09:24 69.1 °F 59.7 °F 29.96 in SSW 1.0 mph 9.0 mph 72% 0.01 in
09:29 69.7 °F 59.9 °F 29.96 in SW 1.0 mph 9.0 mph 71% 0.01 in
09:34 70.0 °F 60.2 °F 29.96 in SW 1.0 mph 8.0 mph 71% 0.01 in
09:39 70.1 °F 60.3 °F 29.95 in SW 2.0 mph 10.0 mph 71% 0.01 in
09:44 70.4 °F 60.6 °F 29.95 in SSW 1.0 mph 10.0 mph 71% 0.01 in
09:49 70.8 °F 60.1 °F 29.95 in SW 3.0 mph 9.0 mph 69% 0.01 in
09:54 71.0 °F 59.5 °F 29.95 in SSW 2.0 mph 9.0 mph 67% 0.01 in
09:59 71.2 °F 60.1 °F 29.96 in SSW 2.0 mph 13.0 mph 68% 0.01 in
10:04 71.5 °F 60.8 °F 29.95 in SSW 1.0 mph 13.0 mph 69% 0.01 in
10:09 72.1 °F 60.1 °F 29.96 in WSW 2.0 mph 9.0 mph 66% 0.01 in
10:14 72.6 °F 60.6 °F 29.95 in SSW 1.0 mph 9.0 mph 66% 0.01 in
10:19 73.1 °F 61.5 °F 29.95 in Calm   6.0 mph 67% 0.01 in
10:24 73.5 °F 59.7 °F 29.95 in SSW 4.0 mph 8.0 mph 62% 0.01 in
10:29 74.0 °F 61.1 °F 29.95 in SE 1.0 mph 8.0 mph 64% 0.01 in
10:34 74.3 °F 61.3 °F 29.95 in SSW 2.0 mph 9.0 mph 64% 0.01 in
10:39 74.1 °F 60.3 °F 29.95 in SW 2.0 mph 11.0 mph 62% 0.01 in
10:44 74.2 °F 60.4 °F 29.95 in SW 3.0 mph 11.0 mph 62% 0.01 in
10:49 74.3 °F 60.5 °F 29.95 in SW 1.0 mph 9.0 mph 62% 0.01 in
10:54 74.1 °F 59.3 °F 29.95 in SW 1.0 mph 9.0 mph 60% 0.01 in
10:59 74.2 °F 59.9 °F 29.95 in SW 3.0 mph 9.0 mph 61% 0.01 in
11:04 74.3 °F 60.0 °F 29.95 in Calm   10.0 mph 61% 0.01 in
11:09 74.9 °F 60.1 °F 29.95 in Calm   10.0 mph 60% 0.01 in
11:14 75.1 °F 58.4 °F 29.95 in SW 3.0 mph 9.0 mph 56% 0.01 in
11:19 75.1 °F 59.8 °F 29.95 in West 1.0 mph 9.0 mph 59% 0.01 in
11:24 75.2 °F 57.4 °F 29.95 in SSW 1.0 mph 8.0 mph 54% 0.01 in
11:29 75.5 °F 57.7 °F 29.94 in Calm   8.0 mph 54% 0.01 in
11:34 75.7 °F 58.9 °F 29.94 in Calm   8.0 mph 56% 0.01 in
11:39 76.0 °F 60.7 °F 29.94 in SW 1.0 mph 7.0 mph 59% 0.01 in
11:44 76.7 °F 60.8 °F 29.94 in Calm   7.0 mph 58% 0.01 in
11:49 77.1 °F 60.2 °F 29.94 in Calm   5.0 mph 56% 0.01 in
11:54 76.9 °F 60.5 °F 29.94 in Calm   10.0 mph 57% 0.01 in
11:59 77.0 °F 57.0 °F 29.94 in SW 2.0 mph 10.0 mph 50% 0.01 in
12:04 77.2 °F 58.8 °F 29.94 in SE 1.0 mph 8.0 mph 53% 0.01 in
12:09 77.1 °F 58.1 °F 29.94 in SSW 2.0 mph 9.0 mph 52% 0.01 in
12:14 77.5 °F 58.5 °F 29.93 in Calm   9.0 mph 52% 0.01 in
12:19 77.9 °F 58.3 °F 29.94 in SSW 1.0 mph 7.0 mph 51% 0.01 in
12:24 78.2 °F 56.9 °F 29.94 in SW 1.0 mph 9.0 mph 48% 0.01 in
12:29 78.4 °F 55.9 °F 29.93 in Calm   9.0 mph 46% 0.01 in
12:34 78.9 °F 57.6 °F 29.93 in Calm   8.0 mph 48% 0.01 in
12:39 78.8 °F 55.1 °F 29.93 in West 2.0 mph 9.0 mph 44% 0.01 in
12:44 78.7 °F 55.0 °F 29.93 in West 6.0 mph 10.0 mph 44% 0.01 in
12:49 78.7 °F 56.2 °F 29.93 in West 3.0 mph 11.0 mph 46% 0.01 in
12:54 78.6 °F 54.9 °F 29.93 in WSW 2.0 mph 11.0 mph 44% 0.01 in
12:59 78.8 °F 57.5 °F 29.92 in SW 2.0 mph 8.0 mph 48% 0.01 in
13:04 79.0 °F 56.5 °F 29.92 in SW 1.0 mph 8.0 mph 46% 0.01 in
13:09 79.3 °F 57.4 °F 29.92 in Calm   8.0 mph 47% 0.01 in
13:14 79.7 °F 57.1 °F 29.92 in SW 1.0 mph 8.0 mph 46% 0.01 in
13:19 79.8 °F 56.6 °F 29.92 in SW 7.0 mph 13.0 mph 45% 0.01 in
13:24 79.4 °F 56.2 °F 29.92 in SSE 1.0 mph 13.0 mph 45% 0.01 in
13:29 79.4 °F 55.6 °F 29.92 in SW 4.0 mph 9.0 mph 44% 0.01 in
13:34 79.2 °F 55.4 °F 29.92 in SW 4.0 mph 11.0 mph 44% 0.01 in
13:39 79.4 °F 55.0 °F 29.91 in SW 1.0 mph 11.0 mph 43% 0.01 in
13:44 79.6 °F 55.8 °F 29.92 in Calm   10.0 mph 44% 0.01 in
13:49 79.8 °F 56.0 °F 29.92 in SSW 3.0 mph 10.0 mph 44% 0.01 in
13:54 79.8 °F 56.0 °F 29.91 in SW 5.0 mph 11.0 mph 44% 0.01 in
13:59 79.9 °F 56.1 °F 29.91 in SW 3.0 mph 11.0 mph 44% 0.01 in
14:04 80.1 °F 58.1 °F 29.91 in WSW 2.0 mph 9.0 mph 47% 0.01 in
14:09 80.2 °F 55.7 °F 29.91 in Calm   9.0 mph 43% 0.01 in
14:14 80.5 °F 56.0 °F 29.91 in SSW 4.0 mph 8.0 mph 43% 0.01 in
14:19 80.7 °F 57.4 °F 29.91 in Calm   8.0 mph 45% 0.01 in
14:24 81.2 °F 58.5 °F 29.90 in Calm   7.0 mph 46% 0.01 in
14:29 81.5 °F 58.1 °F 29.90 in Calm   9.0 mph 45% 0.01 in
14:34 81.7 °F 57.7 °F 29.90 in Calm   9.0 mph 44% 0.01 in
14:39 81.8 °F 57.1 °F 29.90 in Calm   6.0 mph 43% 0.01 in
14:44 81.6 °F 58.2 °F 29.91 in SW 4.0 mph 12.0 mph 45% 0.01 in
14:49 81.1 °F 59.6 °F 29.90 in Calm   12.0 mph 48% 0.01 in
14:54 81.4 °F 56.8 °F 29.90 in South 4.0 mph 10.0 mph 43% 0.01 in
14:59 81.2 °F 58.5 °F 29.90 in ESE 1.0 mph 10.0 mph 46% 0.01 in
15:04 81.4 °F 56.1 °F 29.90 in Calm   7.0 mph 42% 0.01 in
15:09 81.7 °F 56.4 °F 29.90 in West 2.0 mph 8.0 mph 42% 0.01 in
15:14 81.8 °F 57.8 °F 29.90 in Calm   8.0 mph 44% 0.01 in
15:19 81.9 °F 57.2 °F 29.90 in South 3.0 mph 7.0 mph 43% 0.01 in
15:24 81.9 °F 57.2 °F 29.89 in SW 1.0 mph 7.0 mph 43% 0.01 in
15:29 82.1 °F 57.4 °F 29.89 in SSW 2.0 mph 10.0 mph 43% 0.01 in
15:34 82.0 °F 57.3 °F 29.89 in SW 4.0 mph 10.0 mph 43% 0.01 in
15:39 82.2 °F 58.1 °F 29.89 in WSW 2.0 mph 9.0 mph 44% 0.01 in
15:44 82.0 °F 56.7 °F 29.89 in Calm   8.0 mph 42% 0.01 in
15:49 81.5 °F 57.5 °F 29.89 in Calm   8.0 mph 44% 0.01 in
15:54 82.1 °F 57.4 °F 29.89 in SW 3.0 mph 7.0 mph 43% 0.01 in
15:59 82.0 °F 58.6 °F 29.88 in SSW 1.0 mph 7.0 mph 45% 0.01 in
16:04 82.1 °F 59.9 °F 29.88 in Calm   5.0 mph 47% 0.01 in
16:09 82.8 °F 58.7 °F 29.88 in Calm   5.0 mph 44% 0.01 in
16:14 82.7 °F 58.6 °F 29.88 in West 2.0 mph 10.0 mph 44% 0.01 in
16:19 82.7 °F 58.6 °F 29.88 in SW 1.0 mph 10.0 mph 44% 0.01 in
16:24 82.8 °F 59.9 °F 29.88 in Calm   4.0 mph 46% 0.01 in
16:29 83.0 °F 59.5 °F 29.88 in WSW 2.0 mph 8.0 mph 45% 0.01 in
16:34 82.7 °F 58.6 °F 29.88 in SSW 1.0 mph 8.0 mph 44% 0.01 in
16:39 82.3 °F 59.5 °F 29.88 in SSW 1.0 mph 6.0 mph 46% 0.01 in
16:45 82.5 °F 58.4 °F 29.87 in SW 1.0 mph 6.0 mph 44% 0.01 in
16:54 82.1 °F 59.9 °F 29.87 in SW 2.0 mph 9.0 mph 47% 0.01 in
16:59 82.2 °F 60.6 °F 29.87 in Calm   8.0 mph 48% 0.01 in
17:04 82.2 °F 59.4 °F 29.87 in SW 1.0 mph 8.0 mph 46% 0.01 in
17:09 81.9 °F 59.1 °F 29.87 in Calm   9.0 mph 46% 0.01 in
17:14 82.0 °F 59.8 °F 29.87 in Calm   9.0 mph 47% 0.01 in
17:19 82.3 °F 59.5 °F 29.86 in Calm   5.0 mph 46% 0.01 in
17:24 82.1 °F 56.8 °F 29.87 in SW 2.0 mph 8.0 mph 42% 0.01 in
17:30 82.0 °F 59.8 °F 29.87 in Calm   8.0 mph 47% 0.01 in
17:39 81.8 °F 59.6 °F 29.86 in Calm   6.0 mph 47% 0.01 in
17:44 82.0 °F 57.3 °F 29.86 in WSW 2.0 mph 7.0 mph 43% 0.01 in
17:49 81.8 °F 57.8 °F 29.86 in West 1.0 mph 8.0 mph 44% 0.01 in
17:54 81.7 °F 57.7 °F 29.86 in Calm   8.0 mph 44% 0.01 in
17:59 80.9 °F 58.2 °F 29.86 in Calm   9.0 mph 46% 0.01 in
18:04 80.0 °F 56.8 °F 29.86 in Calm   9.0 mph 45% 0.01 in
18:09 79.3 °F 57.4 °F 29.86 in Calm   6.0 mph 47% 0.01 in
18:14 78.7 °F 56.8 °F 29.87 in SSW 1.0 mph 7.0 mph 47% 0.01 in
18:19 77.9 °F 56.7 °F 29.86 in SW 1.0 mph 7.0 mph 48% 0.01 in
18:24 77.2 °F 57.7 °F 29.87 in Calm   6.0 mph 51% 0.01 in
18:29 76.6 °F 59.2 °F 29.87 in Calm   1.0 mph 55% 0.01 in
18:34 75.7 °F 57.9 °F 29.87 in Calm   1.0 mph 54% 0.01 in
18:39 75.3 °F 57.5 °F 29.87 in Calm     54% 0.01 in
18:44 75.6 °F 57.8 °F 29.87 in Calm     54% 0.01 in
18:49 76.5 °F 58.1 °F 29.87 in Calm   1.0 mph 53% 0.01 in
18:54 77.2 °F 58.2 °F 29.86 in Calm   1.0 mph 52% 0.01 in
18:59 77.7 °F 57.6 °F 29.87 in Calm   3.0 mph 50% 0.01 in
19:04 77.9 °F 57.8 °F 29.86 in Calm   3.0 mph 50% 0.01 in
19:09 78.0 °F 57.9 °F 29.87 in Calm   1.0 mph 50% 0.01 in
19:14 77.7 °F 58.7 °F 29.87 in Calm   1.0 mph 52% 0.01 in
19:19 77.5 °F 58.0 °F 29.86 in SW 1.0 mph 3.0 mph 51% 0.01 in
19:24 77.2 °F 58.8 °F 29.87 in Calm   3.0 mph 53% 0.01 in
19:29 76.6 °F 59.2 °F 29.86 in Calm   1.0 mph 55% 0.01 in
19:39 75.1 °F 58.8 °F 29.87 in Calm     57% 0.01 in
19:44 74.5 °F 58.3 °F 29.87 in Calm   1.0 mph 57% 0.01 in
19:49 73.9 °F 58.2 °F 29.87 in Calm   1.0 mph 58% 0.01 in
19:54 73.0 °F 57.8 °F 29.87 in Calm     59% 0.01 in
19:59 72.1 °F 57.9 °F 29.87 in Calm     61% 0.01 in
20:04 71.0 °F 58.2 °F 29.87 in Calm     64% 0.01 in
20:09 69.7 °F 57.4 °F 29.87 in Calm     65% 0.01 in
20:14 68.7 °F 57.3 °F 29.87 in Calm     67% 0.01 in
20:20 68.0 °F 56.6 °F 29.87 in Calm     67% 0.01 in
20:29 67.4 °F 56.9 °F 29.87 in Calm     69% 0.01 in
20:34 67.2 °F 56.7 °F 29.87 in Calm     69% 0.01 in
20:39 67.2 °F 56.7 °F 29.87 in Calm     69% 0.01 in
20:45 67.2 °F 56.7 °F 29.87 in Calm     69% 0.01 in
20:54 66.9 °F 56.4 °F 29.87 in Calm     69% 0.01 in
20:59 66.9 °F 56.8 °F 29.88 in Calm     70% 0.01 in
21:05 66.8 °F 56.7 °F 29.88 in Calm     70% 0.01 in
21:14 66.2 °F 56.9 °F 29.88 in Calm     72% 0.01 in
21:19 65.8 °F 56.9 °F 29.88 in Calm     73% 0.01 in
21:24 65.6 °F 56.3 °F 29.88 in Calm     72% 0.01 in
21:29 65.5 °F 56.2 °F 29.88 in Calm     72% 0.01 in
21:34 65.4 °F 56.1 °F 29.88 in Calm     72% 0.01 in
21:40 65.3 °F 56.1 °F 29.88 in Calm     72% 0.01 in
21:49 65.3 °F 56.1 °F 29.89 in Calm     72% 0.01 in
21:54 65.2 °F 56.0 °F 29.89 in Calm     72% 0.01 in
21:59 65.1 °F 55.9 °F 29.89 in Calm     72% 0.01 in
22:04 64.9 °F 56.0 °F 29.89 in Calm     73% 0.01 in
22:09 64.8 °F 56.0 °F 29.89 in Calm     73% 0.01 in
22:14 64.7 °F 55.9 °F 29.89 in Calm     73% 0.01 in
22:19 64.8 °F 56.0 °F 29.89 in Calm   3.0 mph 73% 0.01 in
22:24 64.6 °F 55.8 °F 29.89 in Calm   3.0 mph 73% 0.01 in
22:29 64.4 °F 55.6 °F 29.89 in Calm   6.0 mph 73% 0.01 in
22:34 64.1 °F 55.7 °F 29.90 in Calm   6.0 mph 74% 0.01 in
22:39 63.8 °F 55.7 °F 29.90 in Calm   2.0 mph 75% 0.01 in
22:44 63.5 °F 55.4 °F 29.90 in Calm   1.0 mph 75% 0.01 in
22:49 63.1 °F 55.4 °F 29.90 in SW 1.0 mph 4.0 mph 76% 0.01 in
22:54 63.2 °F 55.5 °F 29.90 in Calm   4.0 mph 76% 0.01 in
22:59 63.5 °F 55.4 °F 29.90 in Calm   4.0 mph 75% 0.01 in
23:04 63.8 °F 55.4 °F 29.90 in Calm   4.0 mph 74% 0.01 in
23:09 64.1 °F 55.7 °F 29.90 in Calm   3.0 mph 74% 0.01 in
23:14 64.1 °F 55.3 °F 29.90 in Calm   1.0 mph 73% 0.01 in
23:20 64.1 °F 55.3 °F 29.90 in Calm   1.0 mph 73% 0.01 in
23:29 63.6 °F 55.2 °F 29.90 in Calm     74% 0.01 in
23:34 63.2 °F 55.2 °F 29.90 in Calm   1.0 mph 75% 0.01 in
23:39 62.8 °F 55.1 °F 29.90 in Calm   1.0 mph 76% 0.01 in
23:44 62.6 °F 54.9 °F 29.90 in Calm   1.0 mph 76% 0.01 in
23:49 62.5 °F 54.8 °F 29.90 in Calm     76% 0.01 in
23:54 62.4 °F 55.1 °F 29.90 in Calm     77% 0.01 in
23:59 62.2 °F 54.9 °F 29.90 in Calm     77% 0.01 in
Westford Weather
Compliments of Weather Underground

 
 
Current Radar Loop:

Copyright © WestfordWeather.net 2007-2014. All rights reserved.